createdAt,value
2019-03-19T00:23:52.050Z,10.32
2019-03-19T00:53:55.850Z,11.93
2019-03-19T01:23:59.632Z,11.70
2019-03-19T01:54:03.558Z,11.25
2019-03-19T02:24:07.262Z,7.83
2019-03-19T02:54:11.055Z,12.18
2019-03-19T03:24:14.840Z,15.35
2019-03-19T03:54:18.646Z,11.35
2019-03-19T04:24:22.747Z,20.60
2019-03-19T04:54:26.526Z,20.57
2019-03-19T05:24:30.617Z,17.02
2019-03-19T05:54:34.430Z,20.88
2019-03-19T06:24:38.297Z,21.93
2019-03-19T06:54:42.014Z,20.10
2019-03-19T07:24:48.033Z,17.87
2019-03-19T07:54:51.241Z,12.93
2019-03-19T08:24:54.977Z,13.35
2019-03-19T08:54:58.980Z,11.33
2019-03-19T09:25:02.754Z,9.15
2019-03-19T09:55:09.616Z,14.03
2019-03-19T10:25:14.492Z,8.50
2019-03-19T10:55:18.456Z,11.35
2019-03-19T11:25:24.363Z,19.70
2019-03-19T11:55:28.073Z,9.98
2019-03-19T12:25:31.943Z,8.78
2019-03-19T12:55:35.726Z,9.90
2019-03-19T13:25:39.677Z,9.63
2019-03-19T13:55:43.368Z,10.00
2019-03-19T14:25:47.202Z,11.93
2019-03-19T14:55:50.886Z,8.30
2019-03-19T15:25:54.687Z,9.53
2019-03-19T15:55:58.653Z,11.53
2019-03-19T16:26:02.643Z,11.65
2019-03-19T16:56:07.820Z,16.15
2019-03-19T17:26:11.689Z,11.70
2019-03-19T17:56:15.582Z,54.18
2019-03-19T18:26:19.652Z,77.75
2019-03-19T18:56:23.488Z,86.32
2019-03-19T19:26:27.380Z,76.10
2019-03-19T19:56:31.291Z,68.78
2019-03-19T20:26:35.118Z,56.45
2019-03-19T20:56:38.999Z,68.20
2019-03-19T21:26:42.816Z,77.42
2019-03-19T21:56:46.788Z,68.80
2019-03-19T22:26:50.665Z,95.55
2019-03-19T22:56:54.556Z,86.42
2019-03-19T23:26:58.591Z,76.00
2019-03-19T23:57:02.639Z,77.03
